createdAt,value
2022-08-03T00:13:40.820Z,3.30
2022-08-03T00:16:08.802Z,3.20
2022-08-03T00:18:36.547Z,2.70
2022-08-03T00:21:04.463Z,2.90
2022-08-03T00:23:50.953Z,3.00
2022-08-03T00:26:20.084Z,2.95
2022-08-03T00:28:49.302Z,2.97
2022-08-03T00:31:23.136Z,3.08
2022-08-03T00:34:06.149Z,3.10
2022-08-03T00:36:34.701Z,2.90
2022-08-03T00:39:02.454Z,3.20
2022-08-03T00:41:30.229Z,3.50
2022-08-03T00:43:59.336Z,3.10
2022-08-03T00:46:27.063Z,3.60
2022-08-03T00:48:55.395Z,3.10
2022-08-03T00:51:23.850Z,2.97
2022-08-03T00:53:52.269Z,3.30
2022-08-03T00:56:20.070Z,3.35
2022-08-03T00:58:48.436Z,2.83
2022-08-03T01:01:17.564Z,3.13
2022-08-03T01:03:45.640Z,3.38
2022-08-03T01:06:19.292Z,2.97
2022-08-03T01:08:53.523Z,2.83
2022-08-03T01:11:28.483Z,2.97
2022-08-03T01:14:19.036Z,3.25
2022-08-03T01:16:56.961Z,2.92
2022-08-03T01:19:42.981Z,3.40
2022-08-03T01:22:24.396Z,3.13
2022-08-03T01:25:00.561Z,3.85
2022-08-03T01:27:34.478Z,4.57
2022-08-03T01:30:07.216Z,3.40
2022-08-03T01:32:53.470Z,3.28
2022-08-03T01:35:34.566Z,2.80
2022-08-03T01:38:11.025Z,3.40
2022-08-03T01:40:41.654Z,2.88
2022-08-03T01:43:11.746Z,2.80
2022-08-03T01:45:41.549Z,3.00
2022-08-03T01:48:11.073Z,3.10
2022-08-03T01:50:39.775Z,3.20
2022-08-03T01:53:10.006Z,2.85
2022-08-03T01:55:39.469Z,3.60
2022-08-03T01:58:09.424Z,3.30
2022-08-03T02:00:38.584Z,3.25
2022-08-03T02:03:09.408Z,2.83
2022-08-03T02:05:39.071Z,3.40
2022-08-03T02:08:11.684Z,4.60
2022-08-03T02:10:43.234Z,2.97
2022-08-03T02:13:12.147Z,3.40
2022-08-03T02:15:40.299Z,3.10
2022-08-03T02:18:10.929Z,3.20
2022-08-03T02:20:39.959Z,2.92
2022-08-03T02:23:08.477Z,2.97
2022-08-03T02:25:43.099Z,2.88
2022-08-03T02:28:13.381Z,3.67
2022-08-03T02:30:46.823Z,4.38
2022-08-03T02:33:26.005Z,3.25
2022-08-03T02:35:54.932Z,3.15
2022-08-03T02:38:27.152Z,3.63
2022-08-03T02:40:57.334Z,3.20
2022-08-03T02:43:26.393Z,2.92
2022-08-03T02:45:55.453Z,3.42
2022-08-03T02:48:29.083Z,3.35
2022-08-03T02:51:00.145Z,3.22
2022-08-03T02:53:29.887Z,3.10
2022-08-03T02:55:59.124Z,3.40
2022-08-03T02:58:27.232Z,3.50
2022-08-03T03:00:56.189Z,3.22
2022-08-03T03:03:27.613Z,3.20
2022-08-03T03:05:59.788Z,3.60
2022-08-03T03:08:29.221Z,3.10
2022-08-03T03:10:59.269Z,3.10
2022-08-03T03:13:29.270Z,4.63
2022-08-03T03:16:00.635Z,3.97
2022-08-03T03:18:32.398Z,4.60
2022-08-03T03:21:01.653Z,3.55
2022-08-03T03:23:31.637Z,3.55
2022-08-03T03:26:02.294Z,3.47
2022-08-03T03:28:31.593Z,3.20
2022-08-03T03:30:59.693Z,3.60
2022-08-03T03:33:28.583Z,3.50
2022-08-03T03:35:59.541Z,3.17
2022-08-03T03:38:27.387Z,3.22
2022-08-03T03:40:55.727Z,3.90
2022-08-03T03:43:24.913Z,3.70
2022-08-03T03:45:53.900Z,3.38
2022-08-03T03:48:22.126Z,3.67
2022-08-03T03:50:51.059Z,3.53
2022-08-03T03:53:20.457Z,3.50
2022-08-03T03:56:01.542Z,3.95
2022-08-03T03:58:32.059Z,3.40
2022-08-03T04:00:59.952Z,8.00
2022-08-03T04:03:27.752Z,3.92
2022-08-03T04:06:12.939Z,3.60
2022-08-03T04:08:59.535Z,3.65
2022-08-03T04:11:31.870Z,3.45
2022-08-03T04:14:05.079Z,3.25
2022-08-03T04:16:37.989Z,3.47
2022-08-03T04:19:11.491Z,3.20
2022-08-03T04:21:42.490Z,3.30
2022-08-03T04:24:14.853Z,3.83
2022-08-03T04:26:50.876Z,3.45
2022-08-03T04:29:21.919Z,4.00
2022-08-03T04:31:51.300Z,3.70
2022-08-03T04:34:19.498Z,3.83
2022-08-03T04:36:51.081Z,3.83
2022-08-03T04:39:26.511Z,3.65
2022-08-03T04:42:07.550Z,3.67
2022-08-03T04:44:45.597Z,3.90
2022-08-03T04:47:13.337Z,3.72
2022-08-03T04:49:41.623Z,3.60
2022-08-03T04:52:10.388Z,3.78
2022-08-03T04:54:50.231Z,3.70
2022-08-03T04:57:23.134Z,3.65
2022-08-03T05:00:01.413Z,3.50
2022-08-03T05:02:31.674Z,4.07
2022-08-03T05:04:59.950Z,3.80
2022-08-03T05:07:35.652Z,4.00
2022-08-03T05:10:14.817Z,4.32
2022-08-03T05:12:45.105Z,4.03
2022-08-03T05:15:13.220Z,4.00
2022-08-03T05:17:41.296Z,3.95
2022-08-03T05:20:10.542Z,4.10
2022-08-03T05:22:38.777Z,4.30
2022-08-03T05:25:08.710Z,5.43
2022-08-03T05:27:36.526Z,4.78
2022-08-03T05:30:29.652Z,4.47
2022-08-03T05:32:53.430Z,4.32
2022-08-03T05:35:55.787Z,4.53
2022-08-03T05:38:09.644Z,4.55
2022-08-03T05:40:39.680Z,4.78
2022-08-03T05:43:24.437Z,4.22
2022-08-03T05:46:12.244Z,4.47
2022-08-03T05:48:40.431Z,5.05
2022-08-03T05:51:11.753Z,4.07
2022-08-03T05:53:40.418Z,4.40
2022-08-03T05:56:13.616Z,4.15
2022-08-03T05:58:42.870Z,4.10
2022-08-03T06:01:10.701Z,4.60
2022-08-03T06:03:38.444Z,4.00
2022-08-03T06:06:06.280Z,3.65
2022-08-03T06:08:34.055Z,4.07
2022-08-03T06:11:02.091Z,3.90
2022-08-03T06:13:31.185Z,3.75
2022-08-03T06:15:58.944Z,3.95
2022-08-03T06:18:26.828Z,3.78
2022-08-03T06:20:55.114Z,4.00
2022-08-03T06:23:53.947Z,3.70
2022-08-03T06:26:13.298Z,3.67
2022-08-03T06:28:52.733Z,3.45
2022-08-03T06:31:21.949Z,4.00
2022-08-03T06:34:32.989Z,3.45
2022-08-03T06:36:37.532Z,3.28
2022-08-03T06:39:06.200Z,3.60
2022-08-03T06:41:37.241Z,3.20
2022-08-03T06:44:07.398Z,3.40
2022-08-03T06:46:35.547Z,3.58
2022-08-03T06:49:03.323Z,3.67
2022-08-03T06:52:06.127Z,3.50
2022-08-03T06:54:18.910Z,4.80
2022-08-03T06:56:46.654Z,3.75
2022-08-03T07:00:07.774Z,3.25
2022-08-03T07:02:03.798Z,2.97
2022-08-03T07:04:31.609Z,3.15
2022-08-03T07:06:59.441Z,3.08
2022-08-03T07:09:27.204Z,3.40
2022-08-03T07:11:55.177Z,2.90
2022-08-03T07:14:24.357Z,3.30
2022-08-03T07:16:52.082Z,3.00
2022-08-03T07:19:19.812Z,3.05
2022-08-03T07:21:47.706Z,3.53
2022-08-03T07:24:15.506Z,3.45
2022-08-03T07:26:43.404Z,3.10
2022-08-03T07:29:15.261Z,3.30
2022-08-03T07:31:44.589Z,2.80
2022-08-03T07:34:12.751Z,3.15
2022-08-03T07:36:40.496Z,3.10
2022-08-03T07:39:15.343Z,2.72
2022-08-03T07:41:46.394Z,2.97
2022-08-03T07:44:14.526Z,2.80
2022-08-03T07:46:42.453Z,2.78
2022-08-03T07:49:11.735Z,2.75
2022-08-03T07:51:40.278Z,3.20
2022-08-03T07:54:10.134Z,3.30
2022-08-03T07:56:38.438Z,3.00
2022-08-03T07:59:06.212Z,2.65
2022-08-03T08:01:36.647Z,3.10
2022-08-03T08:04:04.654Z,2.65
2022-08-03T08:06:34.082Z,3.08
2022-08-03T08:09:02.382Z,4.50
2022-08-03T08:11:33.989Z,2.92
2022-08-03T08:14:05.496Z,2.95
2022-08-03T08:16:33.324Z,2.60
2022-08-03T08:19:02.081Z,2.63
2022-08-03T08:21:53.000Z,3.03
2022-08-03T08:24:20.353Z,2.80
2022-08-03T08:26:48.350Z,2.75
2022-08-03T08:29:16.091Z,2.83
2022-08-03T08:31:43.896Z,2.70
2022-08-03T08:34:11.572Z,2.60
2022-08-03T08:36:39.295Z,2.55
2022-08-03T08:39:07.076Z,2.75
2022-08-03T08:41:36.270Z,2.90
2022-08-03T08:44:04.176Z,2.75
2022-08-03T08:46:33.872Z,2.60
2022-08-03T08:49:04.570Z,3.20
2022-08-03T08:51:54.435Z,2.70
2022-08-03T08:54:26.977Z,2.50
2022-08-03T08:56:59.813Z,3.40
2022-08-03T08:59:49.620Z,2.60
2022-08-03T09:02:16.353Z,2.80
2022-08-03T09:04:45.627Z,2.92
2022-08-03T09:07:20.183Z,2.80
2022-08-03T09:10:11.239Z,2.90
2022-08-03T09:12:44.474Z,2.72
2022-08-03T09:15:23.485Z,2.85
2022-08-03T09:17:52.714Z,3.20
2022-08-03T09:20:22.424Z,3.10
2022-08-03T09:22:59.074Z,3.10
2022-08-03T09:25:34.529Z,3.00
2022-08-03T09:28:09.122Z,3.05
2022-08-03T09:30:38.966Z,3.10
2022-08-03T09:33:08.373Z,2.70
2022-08-03T09:35:58.135Z,3.30
2022-08-03T09:38:27.481Z,2.97
2022-08-03T09:40:59.873Z,3.28
2022-08-03T09:43:29.975Z,3.10
2022-08-03T09:46:04.804Z,3.00
2022-08-03T09:48:35.011Z,2.85
2022-08-03T09:51:12.847Z,3.10
2022-08-03T09:53:58.540Z,3.13
2022-08-03T09:56:39.570Z,3.17
2022-08-03T09:59:08.837Z,3.00
2022-08-03T10:01:38.812Z,3.10
2022-08-03T10:04:06.670Z,2.70
2022-08-03T10:06:34.521Z,3.40
2022-08-03T10:09:08.031Z,2.90
2022-08-03T10:11:41.191Z,3.13
2022-08-03T10:14:18.711Z,3.38
2022-08-03T10:16:47.560Z,2.80
2022-08-03T10:19:16.138Z,3.22
2022-08-03T10:21:49.373Z,3.05
2022-08-03T10:24:21.293Z,2.63
2022-08-03T10:26:50.759Z,2.58
2022-08-03T10:29:24.780Z,2.60
2022-08-03T10:31:58.140Z,2.88
2022-08-03T10:34:28.140Z,2.60
2022-08-03T10:36:59.806Z,2.70
2022-08-03T10:39:30.769Z,2.58
2022-08-03T10:42:00.065Z,2.70
2022-08-03T10:44:38.345Z,2.50
2022-08-03T10:47:06.728Z,2.88
2022-08-03T10:49:35.706Z,2.60
2022-08-03T10:52:11.192Z,2.70
2022-08-03T10:54:57.105Z,2.60
2022-08-03T10:57:49.731Z,3.00
2022-08-03T11:00:20.917Z,2.70
2022-08-03T11:03:07.124Z,2.63
2022-08-03T11:05:37.516Z,2.67
2022-08-03T11:08:29.310Z,2.50
2022-08-03T11:11:02.334Z,2.60
2022-08-03T11:13:33.494Z,2.42
2022-08-03T11:16:21.908Z,3.15
2022-08-03T11:18:57.889Z,2.70
2022-08-03T11:22:01.347Z,2.70
2022-08-03T11:25:00.611Z,2.85
2022-08-03T11:27:30.862Z,2.70
2022-08-03T11:30:05.254Z,2.80
2022-08-03T11:32:58.381Z,2.67
2022-08-03T11:35:28.952Z,2.70
2022-08-03T11:38:11.876Z,2.80
2022-08-03T11:40:43.676Z,2.60
2022-08-03T11:43:34.797Z,2.60
2022-08-03T11:46:04.274Z,2.85
2022-08-03T11:48:38.736Z,2.53
2022-08-03T11:51:08.883Z,2.42
2022-08-03T11:53:42.045Z,2.80
2022-08-03T11:56:12.508Z,2.30
2022-08-03T11:59:16.705Z,2.40
2022-08-03T12:01:35.618Z,2.60
2022-08-03T12:04:06.238Z,2.47
2022-08-03T12:06:54.369Z,2.60
2022-08-03T12:09:22.446Z,2.35
2022-08-03T12:12:00.345Z,2.40
2022-08-03T12:14:48.455Z,2.45
2022-08-03T12:17:17.909Z,2.58
2022-08-03T12:19:47.406Z,2.95
2022-08-03T12:22:16.012Z,2.40
2022-08-03T12:24:46.806Z,2.42
2022-08-03T12:27:24.316Z,2.50
2022-08-03T12:29:58.627Z,2.40
2022-08-03T12:32:27.655Z,2.30
2022-08-03T12:35:00.836Z,2.15
2022-08-03T12:37:29.760Z,2.28
2022-08-03T12:40:02.660Z,2.67
2022-08-03T12:42:35.036Z,2.17
2022-08-03T12:45:21.541Z,2.45
2022-08-03T12:47:56.679Z,2.40
2022-08-03T12:50:31.483Z,2.33
2022-08-03T12:53:00.434Z,2.88
2022-08-03T12:56:02.347Z,2.20
2022-08-03T12:58:33.665Z,2.40
2022-08-03T13:01:04.731Z,2.50
2022-08-03T13:03:42.663Z,2.28
2022-08-03T13:06:15.764Z,2.33
2022-08-03T13:08:44.492Z,2.15
2022-08-03T13:11:55.508Z,2.08
2022-08-03T13:14:16.714Z,2.25
2022-08-03T13:16:47.545Z,2.10
2022-08-03T13:19:16.135Z,2.33
2022-08-03T13:22:01.659Z,2.40
2022-08-03T13:24:32.045Z,1.98
2022-08-03T13:26:59.993Z,2.28
2022-08-03T13:29:27.708Z,2.28
2022-08-03T13:31:55.574Z,2.38
2022-08-03T13:34:24.108Z,2.20
2022-08-03T13:37:08.365Z,2.55
2022-08-03T13:39:58.054Z,2.28
2022-08-03T13:42:24.379Z,2.00
2022-08-03T13:44:52.393Z,2.00
2022-08-03T13:47:21.127Z,2.10
2022-08-03T13:50:00.207Z,2.00
2022-08-03T13:52:32.254Z,1.80
2022-08-03T13:55:00.304Z,2.08
2022-08-03T13:58:03.129Z,1.70
2022-08-03T14:00:27.657Z,1.65
2022-08-03T14:03:03.857Z,1.70
2022-08-03T14:05:35.740Z,1.90
2022-08-03T14:08:06.627Z,1.85
2022-08-03T14:10:36.187Z,1.90
2022-08-03T14:13:04.506Z,1.60
2022-08-03T14:15:32.388Z,1.70
2022-08-03T14:18:06.603Z,1.80
2022-08-03T14:20:38.868Z,1.70
2022-08-03T14:23:18.417Z,1.73
2022-08-03T14:25:52.425Z,1.85
2022-08-03T14:28:22.309Z,1.83
2022-08-03T14:30:50.789Z,1.83
2022-08-03T14:33:18.640Z,1.92
2022-08-03T14:35:46.424Z,2.05
2022-08-03T14:38:14.488Z,1.83
2022-08-03T14:40:43.860Z,1.92
2022-08-03T14:43:11.938Z,1.88
2022-08-03T14:45:39.764Z,1.90
2022-08-03T14:50:34.599Z,1.90
2022-08-03T14:50:56.754Z,2.00
2022-08-03T14:53:25.158Z,1.92
2022-08-03T14:55:54.218Z,2.13
2022-08-03T14:58:25.211Z,1.88
2022-08-03T15:00:54.332Z,1.90
2022-08-03T15:03:24.854Z,1.95
2022-08-03T15:05:53.447Z,1.90
2022-08-03T15:08:21.842Z,2.00
2022-08-03T15:10:49.763Z,1.80
2022-08-03T15:13:20.398Z,1.85
2022-08-03T15:15:49.547Z,2.00
2022-08-03T15:18:17.482Z,2.10
2022-08-03T15:20:46.605Z,2.00
2022-08-03T15:23:15.770Z,1.80
2022-08-03T15:26:30.291Z,1.95
2022-08-03T15:28:33.141Z,1.75
2022-08-03T15:31:00.942Z,2.00
2022-08-03T15:33:29.084Z,1.70
2022-08-03T15:35:57.471Z,1.90
2022-08-03T15:38:26.484Z,2.30
2022-08-03T15:40:55.306Z,2.10
2022-08-03T15:43:23.844Z,1.58
2022-08-03T15:46:26.625Z,2.00
2022-08-03T15:48:41.289Z,1.70
2022-08-03T15:51:09.707Z,1.80
2022-08-03T15:53:37.690Z,1.90
2022-08-03T15:56:11.409Z,1.63
2022-08-03T15:59:04.579Z,1.80
2022-08-03T16:01:30.369Z,1.95
2022-08-03T16:03:58.230Z,2.08
2022-08-03T16:06:29.733Z,1.90
2022-08-03T16:09:05.336Z,1.90
2022-08-03T16:11:33.169Z,1.90
2022-08-03T16:14:12.355Z,2.00
2022-08-03T16:16:50.200Z,1.90
2022-08-03T16:19:17.915Z,1.85
2022-08-03T16:21:48.788Z,2.10
2022-08-03T16:24:24.247Z,2.40
2022-08-03T16:26:55.865Z,1.90
2022-08-03T16:29:24.175Z,3.05
2022-08-03T16:31:53.832Z,2.63
2022-08-03T16:34:21.846Z,2.03
2022-08-03T16:36:49.627Z,2.10
2022-08-03T16:39:17.384Z,3.10
2022-08-03T16:41:54.078Z,2.20
2022-08-03T16:44:29.950Z,2.08
2022-08-03T16:46:59.600Z,1.83
2022-08-03T16:49:55.468Z,1.95
2022-08-03T16:52:17.901Z,2.00
2022-08-03T16:54:52.550Z,1.95
2022-08-03T16:57:29.897Z,1.98
2022-08-03T17:00:12.507Z,1.83
2022-08-03T17:03:19.170Z,1.85
2022-08-03T17:05:49.819Z,2.10
2022-08-03T17:08:26.132Z,1.90
2022-08-03T17:10:54.962Z,1.95
2022-08-03T17:13:38.733Z,1.90
2022-08-03T17:16:09.517Z,1.90
2022-08-03T17:18:42.172Z,1.83
2022-08-03T17:21:16.566Z,1.60
2022-08-03T17:23:53.429Z,1.88
2022-08-03T17:26:24.611Z,2.10
2022-08-03T17:29:11.158Z,2.00
2022-08-03T17:31:48.907Z,2.00
2022-08-03T17:34:19.843Z,2.30
2022-08-03T17:37:05.582Z,2.10
2022-08-03T17:39:59.827Z,2.03
2022-08-03T17:42:30.241Z,2.00
2022-08-03T17:45:02.414Z,1.98
2022-08-03T17:47:41.447Z,2.13
2022-08-03T17:50:25.026Z,2.08
2022-08-03T17:53:07.569Z,2.00
2022-08-03T17:55:55.891Z,2.10
2022-08-03T17:58:43.643Z,2.25
2022-08-03T18:01:59.996Z,2.13
2022-08-03T18:04:30.334Z,2.20
2022-08-03T18:07:11.751Z,2.00
2022-08-03T18:10:03.485Z,2.10
2022-08-03T18:12:41.477Z,2.10
2022-08-03T18:15:21.462Z,1.80
2022-08-03T18:17:58.288Z,1.95
2022-08-03T18:20:41.201Z,2.00
2022-08-03T18:23:25.168Z,2.10
2022-08-03T18:26:02.462Z,2.20
2022-08-03T18:28:33.617Z,1.98
2022-08-03T18:31:06.057Z,2.30
2022-08-03T18:34:16.858Z,2.08
2022-08-03T18:36:30.548Z,1.95
2022-08-03T18:39:02.620Z,1.92
2022-08-03T18:41:32.067Z,2.00
2022-08-03T18:44:08.222Z,2.30
2022-08-03T18:46:57.752Z,2.40
2022-08-03T18:49:41.401Z,2.08
2022-08-03T18:52:17.940Z,2.50
2022-08-03T18:55:09.543Z,2.05
2022-08-03T18:57:46.570Z,2.50
2022-08-03T19:00:17.485Z,2.30
2022-08-03T19:02:58.612Z,2.20
2022-08-03T19:05:56.410Z,2.60
2022-08-03T19:08:17.893Z,2.83
2022-08-03T19:10:57.720Z,2.38
2022-08-03T19:13:36.630Z,2.30
2022-08-03T19:16:08.554Z,2.90
2022-08-03T19:18:38.857Z,2.75
2022-08-03T19:21:15.686Z,2.70
2022-08-03T19:23:46.000Z,2.55
2022-08-03T19:29:14.935Z,2.60
2022-08-03T19:31:59.456Z,2.70
2022-08-03T19:34:28.824Z,2.42
2022-08-03T19:36:58.192Z,2.88
2022-08-03T19:39:26.925Z,3.47
2022-08-03T19:42:08.014Z,3.60
2022-08-03T19:44:41.662Z,3.15
2022-08-03T19:47:17.122Z,3.10
2022-08-03T19:49:57.095Z,3.28
2022-08-03T19:52:36.011Z,3.58
2022-08-03T19:55:09.541Z,3.00
2022-08-03T19:57:45.644Z,3.22
2022-08-03T20:00:18.505Z,3.72
2022-08-03T20:02:46.514Z,3.72
2022-08-03T20:05:15.867Z,3.05
2022-08-03T20:07:47.714Z,3.20
2022-08-03T20:10:17.739Z,2.80
2022-08-03T20:12:48.423Z,2.90
2022-08-03T20:15:22.372Z,3.00
2022-08-03T20:17:59.417Z,3.17
2022-08-03T20:20:29.754Z,3.60
2022-08-03T20:22:59.308Z,3.15
2022-08-03T20:28:26.659Z,2.75
2022-08-03T20:30:54.762Z,2.60
2022-08-03T20:33:27.792Z,2.65
2022-08-03T20:36:11.331Z,2.70
2022-08-03T20:38:43.625Z,2.60
2022-08-03T20:41:11.730Z,2.70
2022-08-03T20:43:41.799Z,2.75
2022-08-03T20:46:35.384Z,2.63
2022-08-03T20:48:58.969Z,2.88
2022-08-03T20:51:49.201Z,2.85
2022-08-03T20:54:29.838Z,2.38
2022-08-03T20:57:00.176Z,2.95
2022-08-03T20:59:47.045Z,2.63
2022-08-03T21:02:28.678Z,3.00
2022-08-03T21:04:57.212Z,3.10
2022-08-03T21:07:25.304Z,2.78
2022-08-03T21:10:15.856Z,2.90
2022-08-03T21:12:51.779Z,2.38
2022-08-03T21:13:02.203Z,2.70
2022-08-03T21:13:06.786Z,2.95
2022-08-03T21:16:06.538Z,3.17
2022-08-03T21:18:15.752Z,2.65
2022-08-03T21:20:46.048Z,2.67
2022-08-03T21:23:35.192Z,2.63
2022-08-03T21:26:04.803Z,2.83
2022-08-03T21:28:32.780Z,2.50
2022-08-03T21:31:02.698Z,2.90
2022-08-03T21:33:30.773Z,2.55
2022-08-03T21:35:59.142Z,2.63
2022-08-03T21:38:30.155Z,2.55
2022-08-03T21:40:58.573Z,2.83
2022-08-03T21:43:26.490Z,2.85
2022-08-03T21:45:58.724Z,2.80
2022-08-03T21:48:28.735Z,2.72
2022-08-03T21:50:56.610Z,2.60
2022-08-03T21:53:28.078Z,2.58
2022-08-03T21:56:19.931Z,2.90
2022-08-03T21:58:51.597Z,2.67
2022-08-03T22:01:20.986Z,3.03
2022-08-03T22:03:54.016Z,2.83
2022-08-03T22:06:22.169Z,3.00
2022-08-03T22:08:52.670Z,2.83
2022-08-03T22:11:20.611Z,3.00
2022-08-03T22:13:48.790Z,2.88
2022-08-03T22:16:17.163Z,2.70
2022-08-03T22:18:46.928Z,2.95
2022-08-03T22:21:28.009Z,2.55
2022-08-03T22:24:06.472Z,2.83
2022-08-03T22:26:36.535Z,2.72
2022-08-03T22:29:08.706Z,2.80
2022-08-03T22:34:27.340Z,2.50
2022-08-03T22:37:02.547Z,2.70
2022-08-03T22:39:31.618Z,2.70
2022-08-03T22:41:59.865Z,2.83
2022-08-03T22:44:28.349Z,3.20
2022-08-03T22:46:56.829Z,2.67
2022-08-03T22:49:25.221Z,2.75
2022-08-03T22:51:53.763Z,2.92
2022-08-03T22:54:24.045Z,2.95
2022-08-03T22:56:52.615Z,3.13
2022-08-03T22:59:39.746Z,2.83
2022-08-03T23:02:15.017Z,3.15
2022-08-03T23:04:51.544Z,2.75
2022-08-03T23:07:27.981Z,2.95
2022-08-03T23:09:58.434Z,3.05
2022-08-03T23:12:29.460Z,2.88
2022-08-03T23:15:02.342Z,3.22
2022-08-03T23:17:31.817Z,2.88
2022-08-03T23:20:05.072Z,2.97
2022-08-03T23:22:34.586Z,2.70
2022-08-03T23:25:04.753Z,2.97
2022-08-03T23:27:34.003Z,3.30
2022-08-03T23:30:03.188Z,3.00
2022-08-03T23:32:31.929Z,3.25
2022-08-03T23:35:19.503Z,2.95
2022-08-03T23:38:21.295Z,3.10
2022-08-03T23:40:38.396Z,2.90
2022-08-03T23:43:06.551Z,2.72
2022-08-03T23:45:36.645Z,3.00
2022-08-03T23:48:04.543Z,2.90
2022-08-03T23:50:50.089Z,2.95
2022-08-03T23:53:22.643Z,2.90
2022-08-03T23:56:09.144Z,2.80
2022-08-03T23:58:48.307Z,3.38
